Allure of the Seas — C6XS8 — position and weather

sailwx.info

Track history (hours):
 
Tides and Currents Weather Stations Pressure Air Temp Water Temp Dewpoint Dewpoint Depression Visibility Wind Speed Wind Dir Waves Ship Positions

Allure of the Seas

Last reported at 2017-Mar-26 23:33 UTC. Time now 2017-Mar-27 06:48 UTC.
Position N 26°04' W 079°60'.

Length 362 m; draft 9.3 m.

Type: Passenger vessel. MMSI: 311020700.

Date/timePositionNaut miles runAvg speedWind from/ knotsBaromVisibWave heightAir tempDewpointWater temp
2017-Mar-26 23:33N 26°04' W 079°60'7 6.6
2017-Mar-26 22:31N 26°05' W 080°07'0 0.0
2017-Mar-26 21:31N 26°05' W 080°07'0 0.0
2017-Mar-26 20:31N 26°05' W 080°07'0 0.0
2017-Mar-26 19:31N 26°05' W 080°07'0 0.0
2017-Mar-26 18:31N 26°05' W 080°07'0 0.0
2017-Mar-26 17:31N 26°05' W 080°07'0 0.0
2017-Mar-26 16:31N 26°05' W 080°07'0 0.0
2017-Mar-26 15:31N 26°05' W 080°07'0 0.0
2017-Mar-26 14:31N 26°05' W 080°07'0 0.0
2017-Mar-26 13:28N 26°05' W 080°07'0 0.0
2017-Mar-26 12:31N 26°05' W 080°07'0 0.0
2017-Mar-26 11:31N 26°05' W 080°07'0 0.0
2017-Mar-26 10:31N 26°05' W 080°07'2 2.6
2017-Mar-26 09:33N 26°06' W 080°05'1010.5
2017-Mar-26 08:33N 25°56' W 079°59'1717.1
2017-Mar-26 07:33N 25°39' W 079°57'20616.4
2017-Mar-25 19:00N 23°24' W 082°48'28914.9 080 / 291018.010.8 25.022.028.0
2017-Mar-24 23:33N 20°34' W 086°59'5 4.5
2017-Mar-24 22:31N 20°29' W 086°59'0 0.0
2017-Mar-24 21:34N 20°29' W 086°59'0 0.0
2017-Mar-24 20:34N 20°29' W 086°59'0 0.0
2017-Mar-24 19:31N 20°29' W 086°59'0 0.0
2017-Mar-24 18:31N 20°29' W 086°59'0 0.0
2017-Mar-24 17:34N 20°29' W 086°59'0 0.0
2017-Mar-24 16:34N 20°29' W 086°59'0 0.0
2017-Mar-24 15:33N 20°29' W 086°59'0 0.0
2017-Mar-24 14:31N 20°29' W 086°59'0 0.0
2017-Mar-24 13:31N 20°29' W 086°59'0 0.0
2017-Mar-24 12:30N 20°29' W 086°59'0 0.2
2017-Mar-24 11:34N 20°29' W 086°59'10 9.9
2017-Mar-24 10:33N 20°38' W 086°55'  
2017-Mar-19 23:33N 25°43' W 079°57'1616.1
2017-Mar-19 22:33N 25°58' W 080°02'8 8.3
2017-Mar-19 21:34N 26°05' W 080°07'0 0.0
2017-Mar-19 20:33N 26°05' W 080°07'0 0.0
2017-Mar-19 19:33N 26°05' W 080°07'0 0.0
2017-Mar-19 18:34N 26°05' W 080°07'0 0.0
2017-Mar-19 17:33N 26°05' W 080°07'0 0.0
2017-Mar-19 16:34N 26°05' W 080°07'0 0.0
2017-Mar-19 15:33N 26°05' W 080°07'0 0.0
2017-Mar-19 14:33N 26°05' W 080°07'0 0.0
2017-Mar-19 13:33N 26°05' W 080°07'0 0.0
2017-Mar-19 12:33N 26°05' W 080°07'0 0.0
2017-Mar-19 11:34N 26°05' W 080°07'0 0.0
2017-Mar-19 10:33N 26°05' W 080°07'1 1.3
2017-Mar-19 09:33N 26°06' W 080°06'1010.3
2017-Mar-19 08:33N 26°06' W 079°54'1515.4
2017-Mar-19 07:33N 26°08' W 079°37'  
Track history (hours):
 
Tides and Currents Weather Stations Pressure Air Temp Water Temp Dewpoint Dewpoint Depression Visibility Wind Speed Wind Dir Waves Ship Positions

Allure of the Seas

Last reported at 2017-Mar-26 23:33 UTC. Time now 2017-Mar-27 06:48 UTC.
Position N 26°04' W 079°60'.

Length 362 m; draft 9.3 m.

Type: Passenger vessel. MMSI: 311020700.

Date/timePositionNaut miles runAvg speedWind from/ knotsBaromVisibWave heightAir tempDewpointWater temp
2017-Mar-26 23:33N 26°04' W 079°60'7 6.6
2017-Mar-26 22:31N 26°05' W 080°07'0 0.0
2017-Mar-26 21:31N 26°05' W 080°07'0 0.0
2017-Mar-26 20:31N 26°05' W 080°07'0 0.0
2017-Mar-26 19:31N 26°05' W 080°07'0 0.0
2017-Mar-26 18:31N 26°05' W 080°07'0 0.0
2017-Mar-26 17:31N 26°05' W 080°07'0 0.0
2017-Mar-26 16:31N 26°05' W 080°07'0 0.0
2017-Mar-26 15:31N 26°05' W 080°07'0 0.0
2017-Mar-26 14:31N 26°05' W 080°07'0 0.0
2017-Mar-26 13:28N 26°05' W 080°07'0 0.0
2017-Mar-26 12:31N 26°05' W 080°07'0 0.0
2017-Mar-26 11:31N 26°05' W 080°07'0 0.0
2017-Mar-26 10:31N 26°05' W 080°07'2 2.6
2017-Mar-26 09:33N 26°06' W 080°05'1010.5
2017-Mar-26 08:33N 25°56' W 079°59'1717.1
2017-Mar-26 07:33N 25°39' W 079°57'20616.4
2017-Mar-25 19:00N 23°24' W 082°48'28914.9 080 / 291018.010.8 25.022.028.0
2017-Mar-24 23:33N 20°34' W 086°59'5 4.5
2017-Mar-24 22:31N 20°29' W 086°59'0 0.0
2017-Mar-24 21:34N 20°29' W 086°59'0 0.0
2017-Mar-24 20:34N 20°29' W 086°59'0 0.0
2017-Mar-24 19:31N 20°29' W 086°59'0 0.0
2017-Mar-24 18:31N 20°29' W 086°59'0 0.0
2017-Mar-24 17:34N 20°29' W 086°59'0 0.0
2017-Mar-24 16:34N 20°29' W 086°59'0 0.0
2017-Mar-24 15:33N 20°29' W 086°59'0 0.0
2017-Mar-24 14:31N 20°29' W 086°59'0 0.0
2017-Mar-24 13:31N 20°29' W 086°59'0 0.0
2017-Mar-24 12:30N 20°29' W 086°59'0 0.2
2017-Mar-24 11:34N 20°29' W 086°59'10 9.9
2017-Mar-24 10:33N 20°38' W 086°55'  
2017-Mar-19 23:33N 25°43' W 079°57'1616.1
2017-Mar-19 22:33N 25°58' W 080°02'8 8.3
2017-Mar-19 21:34N 26°05' W 080°07'0 0.0
2017-Mar-19 20:33N 26°05' W 080°07'0 0.0
2017-Mar-19 19:33N 26°05' W 080°07'0 0.0
2017-Mar-19 18:34N 26°05' W 080°07'0 0.0
2017-Mar-19 17:33N 26°05' W 080°07'0 0.0
2017-Mar-19 16:34N 26°05' W 080°07'0 0.0
2017-Mar-19 15:33N 26°05' W 080°07'0 0.0
2017-Mar-19 14:33N 26°05' W 080°07'0 0.0
2017-Mar-19 13:33N 26°05' W 080°07'0 0.0
2017-Mar-19 12:33N 26°05' W 080°07'0 0.0
2017-Mar-19 11:34N 26°05' W 080°07'0 0.0
2017-Mar-19 10:33N 26°05' W 080°07'1 1.3
2017-Mar-19 09:33N 26°06' W 080°06'1010.3
2017-Mar-19 08:33N 26°06' W 079°54'1515.4
2017-Mar-19 07:33N 26°08' W 079°37'  

Dump ship's entire track history